sensor_id;sensor_type;location;lat;lon;timestamp;P1;durP1;ratioP1;P2;durP2;ratioP2
47589;SDS011;33316;52.298;9.056;2024-02-21T00:00:51;13.90;;;7.05;;
47589;SDS011;33316;52.298;9.056;2024-02-21T00:03:18;11.57;;;6.38;;
47589;SDS011;33316;52.298;9.056;2024-02-21T00:05:45;15.05;;;7.60;;
47589;SDS011;33316;52.298;9.056;2024-02-21T00:08:12;15.05;;;7.20;;
47589;SDS011;33316;52.298;9.056;2024-02-21T00:10:40;14.95;;;8.25;;
47589;SDS011;33316;52.298;9.056;2024-02-21T00:13:07;17.40;;;8.52;;
47589;SDS011;33316;52.298;9.056;2024-02-21T00:15:34;12.18;;;6.35;;
47589;SDS011;33316;52.298;9.056;2024-02-21T00:18:00;14.07;;;6.95;;
47589;SDS011;33316;52.298;9.056;2024-02-21T00:20:27;15.20;;;8.07;;
47589;SDS011;33316;52.298;9.056;2024-02-21T00:22:54;17.90;;;8.65;;
47589;SDS011;33316;52.298;9.056;2024-02-21T00:25:21;11.73;;;7.15;;
47589;SDS011;33316;52.298;9.056;2024-02-21T00:27:49;14.18;;;7.82;;
47589;SDS011;33316;52.298;9.056;2024-02-21T00:30:16;13.68;;;8.05;;
47589;SDS011;33316;52.298;9.056;2024-02-21T00:32:42;12.77;;;7.03;;
47589;SDS011;33316;52.298;9.056;2024-02-21T00:35:09;12.13;;;6.30;;
47589;SDS011;33316;52.298;9.056;2024-02-21T00:37:37;13.73;;;7.45;;
47589;SDS011;33316;52.298;9.056;2024-02-21T00:40:04;11.30;;;6.88;;
47589;SDS011;33316;52.298;9.056;2024-02-21T00:42:32;14.18;;;7.97;;
47589;SDS011;33316;52.298;9.056;2024-02-21T00:45:00;18.55;;;8.82;;
47589;SDS011;33316;52.298;9.056;2024-02-21T00:47:27;11.05;;;7.00;;
47589;SDS011;33316;52.298;9.056;2024-02-21T00:49:53;13.38;;;7.38;;
47589;SDS011;33316;52.298;9.056;2024-02-21T00:52:21;13.13;;;6.50;;
47589;SDS011;33316;52.298;9.056;2024-02-21T00:54:48;9.45;;;6.40;;
47589;SDS011;33316;52.298;9.056;2024-02-21T00:57:14;19.38;;;8.30;;
47589;SDS011;33316;52.298;9.056;2024-02-21T00:59:41;13.43;;;7.97;;
47589;SDS011;33316;52.298;9.056;2024-02-21T01:02:09;13.27;;;7.50;;
47589;SDS011;33316;52.298;9.056;2024-02-21T01:04:36;16.45;;;7.80;;
47589;SDS011;33316;52.298;9.056;2024-02-21T01:07:03;11.70;;;6.57;;
47589;SDS011;33316;52.298;9.056;2024-02-21T01:09:30;14.25;;;8.15;;
47589;SDS011;33316;52.298;9.056;2024-02-21T01:11:57;14.25;;;8.80;;
47589;SDS011;33316;52.298;9.056;2024-02-21T01:14:24;12.05;;;7.10;;
47589;SDS011;33316;52.298;9.056;2024-02-21T01:16:50;12.13;;;7.15;;
47589;SDS011;33316;52.298;9.056;2024-02-21T01:19:18;15.20;;;8.23;;
47589;SDS011;33316;52.298;9.056;2024-02-21T01:21:45;12.40;;;8.02;;
47589;SDS011;33316;52.298;9.056;2024-02-21T01:24:12;14.43;;;7.55;;
47589;SDS011;33316;52.298;9.056;2024-02-21T01:26:40;13.32;;;7.95;;
47589;SDS011;33316;52.298;9.056;2024-02-21T01:29:07;16.15;;;7.75;;
47589;SDS011;33316;52.298;9.056;2024-02-21T01:31:33;11.85;;;7.57;;
47589;SDS011;33316;52.298;9.056;2024-02-21T01:34:00;10.18;;;6.45;;
47589;SDS011;33316;52.298;9.056;2024-02-21T01:36:28;10.68;;;6.85;;
47589;SDS011;33316;52.298;9.056;2024-02-21T01:38:55;18.02;;;9.02;;
47589;SDS011;33316;52.298;9.056;2024-02-21T01:41:22;12.45;;;6.97;;
47589;SDS011;33316;52.298;9.056;2024-02-21T01:43:49;12.77;;;7.70;;
47589;SDS011;33316;52.298;9.056;2024-02-21T01:46:16;13.48;;;7.53;;
47589;SDS011;33316;52.298;9.056;2024-02-21T01:48:44;14.23;;;7.75;;
47589;SDS011;33316;52.298;9.056;2024-02-21T01:51:12;15.98;;;7.95;;
47589;SDS011;33316;52.298;9.056;2024-02-21T01:53:42;12.88;;;7.40;;
47589;SDS011;33316;52.298;9.056;2024-02-21T01:56:09;15.32;;;8.18;;
47589;SDS011;33316;52.298;9.056;2024-02-21T01:58:37;13.52;;;8.18;;
47589;SDS011;33316;52.298;9.056;2024-02-21T02:01:06;13.90;;;8.35;;
47589;SDS011;33316;52.298;9.056;2024-02-21T02:03:33;11.20;;;6.78;;
47589;SDS011;33316;52.298;9.056;2024-02-21T02:06:00;13.23;;;7.75;;
47589;SDS011;33316;52.298;9.056;2024-02-21T02:08:27;12.40;;;6.82;;
47589;SDS011;33316;52.298;9.056;2024-02-21T02:10:56;13.50;;;7.20;;
47589;SDS011;33316;52.298;9.056;2024-02-21T02:13:22;12.18;;;6.90;;
47589;SDS011;33316;52.298;9.056;2024-02-21T02:15:49;11.82;;;6.40;;
47589;SDS011;33316;52.298;9.056;2024-02-21T02:18:17;9.85;;;6.75;;
47589;SDS011;33316;52.298;9.056;2024-02-21T02:20:45;14.75;;;7.57;;
47589;SDS011;33316;52.298;9.056;2024-02-21T02:25:44;14.32;;;7.05;;
47589;SDS011;33316;52.298;9.056;2024-02-21T02:28:14;11.60;;;7.60;;
47589;SDS011;33316;52.298;9.056;2024-02-21T02:30:41;10.98;;;6.50;;
47589;SDS011;33316;52.298;9.056;2024-02-21T02:33:08;11.90;;;6.97;;
47589;SDS011;33316;52.298;9.056;2024-02-21T02:35:35;8.85;;;5.80;;
47589;SDS011;33316;52.298;9.056;2024-02-21T02:38:01;12.45;;;7.55;;
47589;SDS011;33316;52.298;9.056;2024-02-21T02:40:30;11.20;;;6.90;;
47589;SDS011;33316;52.298;9.056;2024-02-21T02:42:57;15.05;;;8.27;;
47589;SDS011;33316;52.298;9.056;2024-02-21T02:45:24;13.45;;;7.30;;
47589;SDS011;33316;52.298;9.056;2024-02-21T02:47:51;10.65;;;6.47;;
47589;SDS011;33316;52.298;9.056;2024-02-21T02:50:20;12.68;;;7.88;;
47589;SDS011;33316;52.298;9.056;2024-02-21T02:52:47;12.27;;;7.03;;
47589;SDS011;33316;52.298;9.056;2024-02-21T02:55:14;16.67;;;8.10;;
47589;SDS011;33316;52.298;9.056;2024-02-21T02:57:42;12.63;;;7.80;;
47589;SDS011;33316;52.298;9.056;2024-02-21T03:00:10;11.93;;;7.13;;
47589;SDS011;33316;52.298;9.056;2024-02-21T03:02:38;10.85;;;6.68;;
47589;SDS011;33316;52.298;9.056;2024-02-21T03:05:11;13.45;;;7.65;;
47589;SDS011;33316;52.298;9.056;2024-02-21T03:07:39;13.10;;;8.00;;
47589;SDS011;33316;52.298;9.056;2024-02-21T03:10:07;13.73;;;7.43;;
47589;SDS011;33316;52.298;9.056;2024-02-21T03:12:34;14.68;;;7.90;;
47589;SDS011;33316;52.298;9.056;2024-02-21T03:15:02;11.40;;;6.40;;
47589;SDS011;33316;52.298;9.056;2024-02-21T03:17:30;10.43;;;6.32;;
47589;SDS011;33316;52.298;9.056;2024-02-21T03:19:57;13.77;;;7.82;;
47589;SDS011;33316;52.298;9.056;2024-02-21T03:22:25;15.00;;;7.90;;
47589;SDS011;33316;52.298;9.056;2024-02-21T03:24:52;13.85;;;8.15;;
47589;SDS011;33316;52.298;9.056;2024-02-21T03:27:19;12.25;;;6.72;;
47589;SDS011;33316;52.298;9.056;2024-02-21T03:29:45;16.85;;;7.47;;
47589;SDS011;33316;52.298;9.056;2024-02-21T03:32:14;10.90;;;6.93;;
47589;SDS011;33316;52.298;9.056;2024-02-21T03:34:40;11.60;;;6.90;;
47589;SDS011;33316;52.298;9.056;2024-02-21T03:37:07;13.63;;;7.15;;
47589;SDS011;33316;52.298;9.056;2024-02-21T03:39:34;11.45;;;7.13;;
47589;SDS011;33316;52.298;9.056;2024-02-21T03:42:02;12.68;;;7.57;;
47589;SDS011;33316;52.298;9.056;2024-02-21T03:44:29;10.60;;;6.70;;
47589;SDS011;33316;52.298;9.056;2024-02-21T03:46:56;16.48;;;8.25;;
47589;SDS011;33316;52.298;9.056;2024-02-21T03:49:24;14.40;;;8.05;;
47589;SDS011;33316;52.298;9.056;2024-02-21T03:51:51;11.93;;;7.15;;
47589;SDS011;33316;52.298;9.056;2024-02-21T03:54:18;10.68;;;6.72;;
47589;SDS011;33316;52.298;9.056;2024-02-21T03:56:45;10.55;;;6.72;;
47589;SDS011;33316;52.298;9.056;2024-02-21T03:59:12;14.43;;;6.97;;
47589;SDS011;33316;52.298;9.056;2024-02-21T04:01:39;14.45;;;6.93;;
47589;SDS011;33316;52.298;9.056;2024-02-21T04:04:06;14.13;;;8.18;;
47589;SDS011;33316;52.298;9.056;2024-02-21T04:06:34;14.98;;;8.57;;
47589;SDS011;33316;52.298;9.056;2024-02-21T04:09:01;12.80;;;7.25;;
47589;SDS011;33316;52.298;9.056;2024-02-21T04:11:28;11.57;;;6.80;;
47589;SDS011;33316;52.298;9.056;2024-02-21T04:13:55;12.80;;;6.68;;
47589;SDS011;33316;52.298;9.056;2024-02-21T04:16:22;11.55;;;6.60;;
47589;SDS011;33316;52.298;9.056;2024-02-21T04:18:48;11.98;;;6.47;;
47589;SDS011;33316;52.298;9.056;2024-02-21T04:21:16;15.20;;;8.13;;
47589;SDS011;33316;52.298;9.056;2024-02-21T04:23:44;15.10;;;8.00;;
47589;SDS011;33316;52.298;9.056;2024-02-21T04:26:11;10.68;;;6.18;;
47589;SDS011;33316;52.298;9.056;2024-02-21T04:28:38;8.93;;;5.72;;
47589;SDS011;33316;52.298;9.056;2024-02-21T04:31:05;11.55;;;7.00;;
47589;SDS011;33316;52.298;9.056;2024-02-21T04:33:32;13.65;;;8.00;;
47589;SDS011;33316;52.298;9.056;2024-02-21T04:35:58;16.90;;;9.20;;
47589;SDS011;33316;52.298;9.056;2024-02-21T04:38:26;18.25;;;9.85;;
47589;SDS011;33316;52.298;9.056;2024-02-21T04:40:55;14.13;;;7.47;;
47589;SDS011;33316;52.298;9.056;2024-02-21T04:43:23;14.15;;;7.55;;
47589;SDS011;33316;52.298;9.056;2024-02-21T04:45:50;14.85;;;8.18;;
47589;SDS011;33316;52.298;9.056;2024-02-21T04:48:18;15.30;;;8.60;;
47589;SDS011;33316;52.298;9.056;2024-02-21T04:50:45;14.23;;;7.50;;
47589;SDS011;33316;52.298;9.056;2024-02-21T04:53:12;14.05;;;8.10;;
47589;SDS011;33316;52.298;9.056;2024-02-21T04:55:39;13.10;;;7.53;;
47589;SDS011;33316;52.298;9.056;2024-02-21T04:58:07;17.13;;;8.88;;
47589;SDS011;33316;52.298;9.056;2024-02-21T05:00:34;15.82;;;8.68;;
47589;SDS011;33316;52.298;9.056;2024-02-21T05:03:01;17.27;;;9.65;;
47589;SDS011;33316;52.298;9.056;2024-02-21T05:05:27;14.48;;;8.23;;
47589;SDS011;33316;52.298;9.056;2024-02-21T05:07:54;12.90;;;8.10;;
47589;SDS011;33316;52.298;9.056;2024-02-21T05:10:21;17.48;;;8.23;;
47589;SDS011;33316;52.298;9.056;2024-02-21T05:12:48;11.82;;;7.85;;
47589;SDS011;33316;52.298;9.056;2024-02-21T05:15:16;12.77;;;7.38;;
47589;SDS011;33316;52.298;9.056;2024-02-21T05:17:43;22.02;;;9.13;;
47589;SDS011;33316;52.298;9.056;2024-02-21T05:20:10;16.05;;;7.60;;
47589;SDS011;33316;52.298;9.056;2024-02-21T05:22:37;15.10;;;8.68;;
47589;SDS011;33316;52.298;9.056;2024-02-21T05:25:04;13.40;;;7.40;;
47589;SDS011;33316;52.298;9.056;2024-02-21T05:27:31;14.07;;;8.13;;
47589;SDS011;33316;52.298;9.056;2024-02-21T05:29:58;15.73;;;8.68;;
47589;SDS011;33316;52.298;9.056;2024-02-21T05:32:26;11.82;;;7.65;;
47589;SDS011;33316;52.298;9.056;2024-02-21T05:34:53;13.73;;;7.47;;
47589;SDS011;33316;52.298;9.056;2024-02-21T05:37:20;17.50;;;8.63;;
47589;SDS011;33316;52.298;9.056;2024-02-21T05:39:47;12.07;;;7.53;;
47589;SDS011;33316;52.298;9.056;2024-02-21T05:42:14;13.02;;;7.93;;
47589;SDS011;33316;52.298;9.056;2024-02-21T05:44:40;14.98;;;7.25;;
47589;SDS011;33316;52.298;9.056;2024-02-21T05:47:07;11.93;;;6.60;;
47589;SDS011;33316;52.298;9.056;2024-02-21T05:49:37;11.73;;;6.63;;
47589;SDS011;33316;52.298;9.056;2024-02-21T05:52:05;7.28;;;4.30;;
47589;SDS011;33316;52.298;9.056;2024-02-21T05:54:32;10.70;;;6.25;;
47589;SDS011;33316;52.298;9.056;2024-02-21T05:56:59;10.27;;;6.05;;
47589;SDS011;33316;52.298;9.056;2024-02-21T05:59:26;8.73;;;5.57;;
47589;SDS011;33316;52.298;9.056;2024-02-21T06:01:55;10.18;;;7.05;;
47589;SDS011;33316;52.298;9.056;2024-02-21T06:04:23;11.27;;;7.65;;
47589;SDS011;33316;52.298;9.056;2024-02-21T06:06:51;15.25;;;7.35;;
47589;SDS011;33316;52.298;9.056;2024-02-21T06:09:17;11.88;;;6.50;;
47589;SDS011;33316;52.298;9.056;2024-02-21T06:11:44;11.60;;;6.90;;
47589;SDS011;33316;52.298;9.056;2024-02-21T06:14:12;12.02;;;7.25;;
47589;SDS011;33316;52.298;9.056;2024-02-21T06:16:38;11.85;;;7.97;;
47589;SDS011;33316;52.298;9.056;2024-02-21T06:19:05;11.68;;;6.65;;
47589;SDS011;33316;52.298;9.056;2024-02-21T06:21:32;12.60;;;7.47;;
47589;SDS011;33316;52.298;9.056;2024-02-21T06:24:00;10.90;;;6.25;;
47589;SDS011;33316;52.298;9.056;2024-02-21T06:26:27;10.27;;;6.30;;
47589;SDS011;33316;52.298;9.056;2024-02-21T06:28:55;13.55;;;8.07;;
47589;SDS011;33316;52.298;9.056;2024-02-21T06:31:24;12.20;;;7.45;;
47589;SDS011;33316;52.298;9.056;2024-02-21T06:33:51;12.07;;;6.95;;
47589;SDS011;33316;52.298;9.056;2024-02-21T06:36:18;11.35;;;6.30;;
47589;SDS011;33316;52.298;9.056;2024-02-21T06:38:45;9.95;;;6.68;;
47589;SDS011;33316;52.298;9.056;2024-02-21T06:41:16;9.02;;;6.28;;
47589;SDS011;33316;52.298;9.056;2024-02-21T06:43:44;8.63;;;5.65;;
47589;SDS011;33316;52.298;9.056;2024-02-21T06:46:11;10.43;;;6.43;;
47589;SDS011;33316;52.298;9.056;2024-02-21T06:48:38;11.90;;;5.97;;
47589;SDS011;33316;52.298;9.056;2024-02-21T06:51:05;7.53;;;5.38;;
47589;SDS011;33316;52.298;9.056;2024-02-21T06:53:31;9.50;;;6.20;;
47589;SDS011;33316;52.298;9.056;2024-02-21T06:55:58;11.02;;;5.22;;
47589;SDS011;33316;52.298;9.056;2024-02-21T06:58:26;7.03;;;5.53;;
47589;SDS011;33316;52.298;9.056;2024-02-21T07:00:53;8.30;;;5.32;;
47589;SDS011;33316;52.298;9.056;2024-02-21T07:03:20;13.73;;;7.28;;
47589;SDS011;33316;52.298;9.056;2024-02-21T07:05:49;13.98;;;7.60;;
47589;SDS011;33316;52.298;9.056;2024-02-21T07:08:15;13.73;;;7.13;;
47589;SDS011;33316;52.298;9.056;2024-02-21T07:10:42;11.38;;;5.97;;
47589;SDS011;33316;52.298;9.056;2024-02-21T07:13:09;13.75;;;6.90;;
47589;SDS011;33316;52.298;9.056;2024-02-21T07:15:37;11.50;;;6.68;;
47589;SDS011;33316;52.298;9.056;2024-02-21T07:18:05;12.43;;;6.22;;
47589;SDS011;33316;52.298;9.056;2024-02-21T07:20:31;11.23;;;6.78;;
47589;SDS011;33316;52.298;9.056;2024-02-21T07:23:02;11.23;;;6.87;;
47589;SDS011;33316;52.298;9.056;2024-02-21T07:25:29;12.50;;;7.25;;
47589;SDS011;33316;52.298;9.056;2024-02-21T07:27:55;16.10;;;7.70;;
47589;SDS011;33316;52.298;9.056;2024-02-21T07:30:22;10.50;;;7.07;;
47589;SDS011;33316;52.298;9.056;2024-02-21T07:32:50;11.32;;;6.28;;
47589;SDS011;33316;52.298;9.056;2024-02-21T07:35:17;7.72;;;5.50;;
47589;SDS011;33316;52.298;9.056;2024-02-21T07:37:44;9.02;;;5.68;;
47589;SDS011;33316;52.298;9.056;2024-02-21T07:40:14;12.40;;;6.18;;
47589;SDS011;33316;52.298;9.056;2024-02-21T07:42:42;11.80;;;6.57;;
47589;SDS011;33316;52.298;9.056;2024-02-21T07:45:09;13.52;;;7.13;;
47589;SDS011;33316;52.298;9.056;2024-02-21T07:47:37;11.07;;;7.07;;
47589;SDS011;33316;52.298;9.056;2024-02-21T07:50:06;8.80;;;5.30;;
47589;SDS011;33316;52.298;9.056;2024-02-21T07:52:34;9.00;;;6.35;;
47589;SDS011;33316;52.298;9.056;2024-02-21T07:55:01;11.48;;;6.88;;
47589;SDS011;33316;52.298;9.056;2024-02-21T07:57:28;13.00;;;7.13;;
47589;SDS011;33316;52.298;9.056;2024-02-21T07:59:55;7.18;;;5.28;;
47589;SDS011;33316;52.298;9.056;2024-02-21T08:02:22;13.18;;;5.85;;
47589;SDS011;33316;52.298;9.056;2024-02-21T08:04:49;7.90;;;4.68;;
47589;SDS011;33316;52.298;9.056;2024-02-21T08:07:17;9.50;;;4.78;;
47589;SDS011;33316;52.298;9.056;2024-02-21T08:09:44;12.00;;;5.75;;
47589;SDS011;33316;52.298;9.056;2024-02-21T08:12:10;11.38;;;5.50;;
47589;SDS011;33316;52.298;9.056;2024-02-21T08:14:37;9.88;;;5.45;;
47589;SDS011;33316;52.298;9.056;2024-02-21T08:17:04;9.98;;;5.10;;
47589;SDS011;33316;52.298;9.056;2024-02-21T08:19:31;8.43;;;3.42;;
47589;SDS011;33316;52.298;9.056;2024-02-21T08:21:58;7.28;;;4.10;;
47589;SDS011;33316;52.298;9.056;2024-02-21T08:24:26;9.55;;;4.63;;
47589;SDS011;33316;52.298;9.056;2024-02-21T08:26:53;8.60;;;4.60;;
47589;SDS011;33316;52.298;9.056;2024-02-21T08:29:20;11.55;;;5.53;;
47589;SDS011;33316;52.298;9.056;2024-02-21T08:31:47;8.23;;;4.53;;
47589;SDS011;33316;52.298;9.056;2024-02-21T08:34:14;8.70;;;4.60;;
47589;SDS011;33316;52.298;9.056;2024-02-21T08:36:41;7.72;;;3.75;;
47589;SDS011;33316;52.298;9.056;2024-02-21T08:39:08;9.02;;;4.13;;
47589;SDS011;33316;52.298;9.056;2024-02-21T08:41:37;6.78;;;3.92;;
47589;SDS011;33316;52.298;9.056;2024-02-21T08:44:04;5.22;;;3.72;;
47589;SDS011;33316;52.298;9.056;2024-02-21T08:46:32;8.43;;;3.95;;
47589;SDS011;33316;52.298;9.056;2024-02-21T08:48:59;6.20;;;3.35;;
47589;SDS011;33316;52.298;9.056;2024-02-21T08:51:26;9.75;;;4.07;;
47589;SDS011;33316;52.298;9.056;2024-02-21T08:53:52;7.25;;;3.50;;
47589;SDS011;33316;52.298;9.056;2024-02-21T08:56:20;6.13;;;3.08;;
47589;SDS011;33316;52.298;9.056;2024-02-21T08:58:48;4.47;;;2.60;;
47589;SDS011;33316;52.298;9.056;2024-02-21T09:01:14;5.80;;;2.63;;
47589;SDS011;33316;52.298;9.056;2024-02-21T09:03:40;4.15;;;2.55;;
47589;SDS011;33316;52.298;9.056;2024-02-21T09:06:10;7.97;;;2.95;;
47589;SDS011;33316;52.298;9.056;2024-02-21T09:08:38;6.20;;;2.97;;
47589;SDS011;33316;52.298;9.056;2024-02-21T09:11:05;6.32;;;3.08;;
47589;SDS011;33316;52.298;9.056;2024-02-21T09:13:32;7.38;;;3.30;;
47589;SDS011;33316;52.298;9.056;2024-02-21T09:16:00;6.90;;;3.08;;
47589;SDS011;33316;52.298;9.056;2024-02-21T09:18:27;5.40;;;2.58;;
47589;SDS011;33316;52.298;9.056;2024-02-21T09:20:54;7.00;;;2.97;;
47589;SDS011;33316;52.298;9.056;2024-02-21T09:23:23;5.63;;;2.70;;
47589;SDS011;33316;52.298;9.056;2024-02-21T09:25:50;4.80;;;2.63;;
47589;SDS011;33316;52.298;9.056;2024-02-21T09:28:17;6.03;;;2.25;;
47589;SDS011;33316;52.298;9.056;2024-02-21T09:30:44;6.10;;;2.58;;
47589;SDS011;33316;52.298;9.056;2024-02-21T09:33:12;5.70;;;2.97;;
47589;SDS011;33316;52.298;9.056;2024-02-21T09:35:39;5.88;;;2.42;;
47589;SDS011;33316;52.298;9.056;2024-02-21T09:38:06;5.20;;;2.35;;
47589;SDS011;33316;52.298;9.056;2024-02-21T09:40:33;6.22;;;2.40;;
47589;SDS011;33316;52.298;9.056;2024-02-21T09:43:04;6.47;;;2.45;;
47589;SDS011;33316;52.298;9.056;2024-02-21T09:45:32;4.97;;;2.50;;
47589;SDS011;33316;52.298;9.056;2024-02-21T09:48:10;3.22;;;1.98;;
47589;SDS011;33316;52.298;9.056;2024-02-21T09:50:54;5.65;;;2.35;;
47589;SDS011;33316;52.298;9.056;2024-02-21T09:53:22;8.02;;;2.80;;
47589;SDS011;33316;52.298;9.056;2024-02-21T09:55:51;4.93;;;2.47;;
47589;SDS011;33316;52.298;9.056;2024-02-21T09:58:18;6.97;;;2.40;;
47589;SDS011;33316;52.298;9.056;2024-02-21T10:00:45;5.95;;;2.90;;
47589;SDS011;33316;52.298;9.056;2024-02-21T10:03:16;5.45;;;2.67;;
47589;SDS011;33316;52.298;9.056;2024-02-21T10:05:47;5.10;;;2.30;;
47589;SDS011;33316;52.298;9.056;2024-02-21T10:08:15;5.93;;;2.72;;
47589;SDS011;33316;52.298;9.056;2024-02-21T10:10:43;5.15;;;2.40;;
47589;SDS011;33316;52.298;9.056;2024-02-21T10:13:10;4.75;;;2.20;;
47589;SDS011;33316;52.298;9.056;2024-02-21T10:15:37;4.15;;;2.22;;
47589;SDS011;33316;52.298;9.056;2024-02-21T10:18:04;3.30;;;1.83;;
47589;SDS011;33316;52.298;9.056;2024-02-21T10:20:32;5.05;;;1.85;;
47589;SDS011;33316;52.298;9.056;2024-02-21T10:23:01;5.00;;;2.05;;
47589;SDS011;33316;52.298;9.056;2024-02-21T10:25:33;4.57;;;1.92;;
47589;SDS011;33316;52.298;9.056;2024-02-21T10:28:00;4.78;;;1.77;;
47589;SDS011;33316;52.298;9.056;2024-02-21T10:30:28;5.18;;;2.10;;
47589;SDS011;33316;52.298;9.056;2024-02-21T10:32:55;3.55;;;1.73;;
47589;SDS011;33316;52.298;9.056;2024-02-21T10:35:26;6.22;;;1.98;;
47589;SDS011;33316;52.298;9.056;2024-02-21T10:37:54;6.50;;;1.90;;
47589;SDS011;33316;52.298;9.056;2024-02-21T10:40:24;5.78;;;1.92;;
47589;SDS011;33316;52.298;9.056;2024-02-21T10:42:53;4.70;;;1.75;;
47589;SDS011;33316;52.298;9.056;2024-02-21T10:45:26;4.63;;;1.15;;
47589;SDS011;33316;52.298;9.056;2024-02-21T10:48:00;4.90;;;1.80;;
47589;SDS011;33316;52.298;9.056;2024-02-21T10:50:39;3.55;;;1.52;;
47589;SDS011;33316;52.298;9.056;2024-02-21T10:53:15;5.07;;;1.75;;
47589;SDS011;33316;52.298;9.056;2024-02-21T10:55:55;2.55;;;1.48;;
47589;SDS011;33316;52.298;9.056;2024-02-21T10:58:25;4.07;;;1.45;;
47589;SDS011;33316;52.298;9.056;2024-02-21T11:00:53;5.72;;;1.58;;
47589;SDS011;33316;52.298;9.056;2024-02-21T11:03:21;4.43;;;1.40;;
47589;SDS011;33316;52.298;9.056;2024-02-21T11:05:48;2.65;;;1.10;;
47589;SDS011;33316;52.298;9.056;2024-02-21T11:08:15;1.90;;;1.27;;
47589;SDS011;33316;52.298;9.056;2024-02-21T11:10:45;5.07;;;1.40;;
47589;SDS011;33316;52.298;9.056;2024-02-21T11:13:13;4.80;;;1.20;;
47589;SDS011;33316;52.298;9.056;2024-02-21T11:15:40;2.53;;;1.05;;
47589;SDS011;33316;52.298;9.056;2024-02-21T11:18:07;2.65;;;1.20;;
47589;SDS011;33316;52.298;9.056;2024-02-21T11:20:34;1.20;;;0.80;;
47589;SDS011;33316;52.298;9.056;2024-02-21T11:23:02;3.75;;;1.33;;
47589;SDS011;33316;52.298;9.056;2024-02-21T11:25:28;2.67;;;1.20;;
47589;SDS011;33316;52.298;9.056;2024-02-21T11:27:59;3.35;;;1.13;;
47589;SDS011;33316;52.298;9.056;2024-02-21T11:30:29;2.85;;;1.35;;
47589;SDS011;33316;52.298;9.056;2024-02-21T11:33:00;4.75;;;1.83;;
47589;SDS011;33316;52.298;9.056;2024-02-21T11:35:30;4.22;;;1.55;;
47589;SDS011;33316;52.298;9.056;2024-02-21T11:38:07;3.80;;;1.77;;
47589;SDS011;33316;52.298;9.056;2024-02-21T11:40:37;2.42;;;1.27;;
47589;SDS011;33316;52.298;9.056;2024-02-21T11:43:05;4.15;;;1.83;;
47589;SDS011;33316;52.298;9.056;2024-02-21T11:45:33;3.75;;;1.90;;
47589;SDS011;33316;52.298;9.056;2024-02-21T11:48:02;3.15;;;1.58;;
47589;SDS011;33316;52.298;9.056;2024-02-21T11:50:31;3.60;;;1.60;;
47589;SDS011;33316;52.298;9.056;2024-02-21T11:52:58;4.68;;;2.13;;
47589;SDS011;33316;52.298;9.056;2024-02-21T11:55:25;6.50;;;1.83;;
47589;SDS011;33316;52.298;9.056;2024-02-21T11:57:51;2.80;;;1.65;;
47589;SDS011;33316;52.298;9.056;2024-02-21T12:00:19;5.80;;;1.90;;
47589;SDS011;33316;52.298;9.056;2024-02-21T12:02:47;5.82;;;2.78;;
47589;SDS011;33316;52.298;9.056;2024-02-21T12:05:15;4.20;;;2.13;;
47589;SDS011;33316;52.298;9.056;2024-02-21T12:07:42;5.13;;;2.50;;
47589;SDS011;33316;52.298;9.056;2024-02-21T12:10:10;6.50;;;2.80;;
47589;SDS011;33316;52.298;9.056;2024-02-21T12:12:37;6.88;;;2.92;;
47589;SDS011;33316;52.298;9.056;2024-02-21T12:15:04;6.13;;;3.35;;
47589;SDS011;33316;52.298;9.056;2024-02-21T12:17:32;5.35;;;2.70;;
47589;SDS011;33316;52.298;9.056;2024-02-21T12:20:01;5.40;;;2.83;;
47589;SDS011;33316;52.298;9.056;2024-02-21T12:22:30;5.55;;;2.67;;
47589;SDS011;33316;52.298;9.056;2024-02-21T12:24:58;6.53;;;3.33;;
47589;SDS011;33316;52.298;9.056;2024-02-21T12:27:25;5.68;;;3.05;;
47589;SDS011;33316;52.298;9.056;2024-02-21T12:29:52;6.45;;;3.25;;
47589;SDS011;33316;52.298;9.056;2024-02-21T12:32:19;7.85;;;3.42;;
47589;SDS011;33316;52.298;9.056;2024-02-21T12:34:46;6.70;;;3.63;;
47589;SDS011;33316;52.298;9.056;2024-02-21T12:37:14;5.85;;;3.38;;
47589;SDS011;33316;52.298;9.056;2024-02-21T12:39:42;6.43;;;3.33;;
47589;SDS011;33316;52.298;9.056;2024-02-21T12:42:09;5.15;;;2.78;;
47589;SDS011;33316;52.298;9.056;2024-02-21T12:44:37;4.97;;;2.70;;
47589;SDS011;33316;52.298;9.056;2024-02-21T12:47:05;6.55;;;3.40;;
47589;SDS011;33316;52.298;9.056;2024-02-21T12:49:33;5.13;;;2.95;;
47589;SDS011;33316;52.298;9.056;2024-02-21T12:52:00;5.50;;;2.75;;
47589;SDS011;33316;52.298;9.056;2024-02-21T12:54:28;4.70;;;2.75;;
47589;SDS011;33316;52.298;9.056;2024-02-21T12:56:55;5.88;;;3.40;;
47589;SDS011;33316;52.298;9.056;2024-02-21T12:59:22;6.03;;;2.92;;
47589;SDS011;33316;52.298;9.056;2024-02-21T13:01:49;4.55;;;2.60;;
47589;SDS011;33316;52.298;9.056;2024-02-21T13:04:16;5.30;;;2.35;;
47589;SDS011;33316;52.298;9.056;2024-02-21T13:06:42;4.95;;;2.38;;
47589;SDS011;33316;52.298;9.056;2024-02-21T13:09:10;4.93;;;2.45;;
47589;SDS011;33316;52.298;9.056;2024-02-21T13:11:38;3.35;;;2.08;;
47589;SDS011;33316;52.298;9.056;2024-02-21T13:14:08;3.72;;;2.10;;
47589;SDS011;33316;52.298;9.056;2024-02-21T13:16:34;4.00;;;1.83;;
47589;SDS011;33316;52.298;9.056;2024-02-21T13:19:04;5.93;;;2.15;;
47589;SDS011;33316;52.298;9.056;2024-02-21T13:21:31;2.80;;;1.65;;
47589;SDS011;33316;52.298;9.056;2024-02-21T13:23:58;4.30;;;1.73;;
47589;SDS011;33316;52.298;9.056;2024-02-21T13:26:24;3.78;;;1.67;;
47589;SDS011;33316;52.298;9.056;2024-02-21T13:28:52;4.43;;;2.05;;
47589;SDS011;33316;52.298;9.056;2024-02-21T13:31:20;3.20;;;1.90;;
47589;SDS011;33316;52.298;9.056;2024-02-21T13:33:47;3.85;;;1.88;;
47589;SDS011;33316;52.298;9.056;2024-02-21T13:36:14;4.40;;;1.50;;
47589;SDS011;33316;52.298;9.056;2024-02-21T13:38:41;4.97;;;1.60;;
47589;SDS011;33316;52.298;9.056;2024-02-21T13:41:08;4.30;;;1.27;;
47589;SDS011;33316;52.298;9.056;2024-02-21T13:43:35;4.18;;;1.38;;
47589;SDS011;33316;52.298;9.056;2024-02-21T13:46:03;3.30;;;1.42;;
47589;SDS011;33316;52.298;9.056;2024-02-21T13:48:35;3.15;;;1.30;;
47589;SDS011;33316;52.298;9.056;2024-02-21T13:51:03;3.47;;;1.10;;
47589;SDS011;33316;52.298;9.056;2024-02-21T13:53:30;4.85;;;1.50;;
47589;SDS011;33316;52.298;9.056;2024-02-21T13:55:57;4.78;;;1.63;;
47589;SDS011;33316;52.298;9.056;2024-02-21T13:58:24;2.95;;;1.10;;
47589;SDS011;33316;52.298;9.056;2024-02-21T14:00:51;3.83;;;1.23;;
47589;SDS011;33316;52.298;9.056;2024-02-21T14:03:20;4.70;;;1.25;;
47589;SDS011;33316;52.298;9.056;2024-02-21T14:05:46;7.70;;;1.42;;
47589;SDS011;33316;52.298;9.056;2024-02-21T14:08:14;4.30;;;1.48;;
47589;SDS011;33316;52.298;9.056;2024-02-21T14:10:41;3.28;;;1.20;;
47589;SDS011;33316;52.298;9.056;2024-02-21T14:13:08;4.10;;;0.90;;
47589;SDS011;33316;52.298;9.056;2024-02-21T14:15:35;4.28;;;1.27;;
47589;SDS011;33316;52.298;9.056;2024-02-21T14:20:35;2.40;;;1.10;;
47589;SDS011;33316;52.298;9.056;2024-02-21T14:23:02;4.60;;;1.33;;
47589;SDS011;33316;52.298;9.056;2024-02-21T14:25:29;4.82;;;1.80;;
47589;SDS011;33316;52.298;9.056;2024-02-21T14:27:56;7.53;;;3.50;;
47589;SDS011;33316;52.298;9.056;2024-02-21T14:30:23;5.32;;;2.15;;
47589;SDS011;33316;52.298;9.056;2024-02-21T14:32:50;4.10;;;1.40;;
47589;SDS011;33316;52.298;9.056;2024-02-21T14:35:17;5.57;;;1.60;;
47589;SDS011;33316;52.298;9.056;2024-02-21T14:37:45;2.63;;;1.23;;
47589;SDS011;33316;52.298;9.056;2024-02-21T14:40:14;4.55;;;1.15;;
47589;SDS011;33316;52.298;9.056;2024-02-21T14:42:41;2.90;;;1.35;;
47589;SDS011;33316;52.298;9.056;2024-02-21T14:45:12;2.45;;;1.30;;
47589;SDS011;33316;52.298;9.056;2024-02-21T14:47:39;4.38;;;1.50;;